Date,TemperatureHighF,TemperatureAvgF,TemperatureLowF,DewpointHighF,DewpointAvgF,DewpointLowF,HumidityHigh,HumidityAvg,HumidityLow,PressureMaxIn,PressureMinIn,WindSpeedMaxMPH,WindSpeedAvgMPH,GustSpeedMaxMPH,PrecipitationSumIn
2013-5-1,66,54,44,49,42,37,99,66,41,30.42,30.30,4,1,17,0.01
2013-5-2,66,53,42,50,44,39,93,75,50,30.43,30.32,4,1,15,0.00
2013-5-3,63,53,43,49,44,38,92,72,51,30.39,30.29,5,1,20,0.00
2013-5-4,64,51,39,48,42,37,96,75,51,30.33,30.20,4,1,16,0.00
2013-5-5,61,48,38,47,41,37,95,77,55,30.23,30.15,4,1,20,0.00
2013-5-6,55,48,42,54,47,40,100,95,86,30.19,30.09,5,2,18,0.02
2013-5-7,58,55,52,58,54,51,100,99,98,30.10,29.94,6,2,25,1.97
2013-5-8,64,55,50,58,54,49,100,96,74,30.01,29.92,3,0,14,0.11
2013-5-9,68,57,48,60,54,47,99,90,70,30.02,29.91,4,1,10,0.00
2013-5-10,79,64,56,63,57,52,98,79,54,30.02,29.85,6,0,16,0.84
2013-5-11,67,60,56,65,59,52,100,94,76,29.86,29.72,5,1,13,0.21
2013-5-12,56,50,43,52,39,30,88,65,46,30.01,29.74,8,4,24,0.00
2013-5-13,52,44,39,34,30,27,71,58,42,30.18,30.01,7,2,20,0.00
2013-5-14,57,46,34,41,33,26,75,62,47,30.22,30.07,3,0,15,0.00
2013-5-15,79,61,48,67,52,37,80,71,61,30.07,29.72,3,1,12,0.00
2013-5-16,74,68,62,65,60,56,93,76,63,29.93,29.75,6,1,14,0.00
2013-5-17,76,66,55,62,55,48,94,69,49,30.13,29.92,2,0,12,0.00
2013-5-18,64,58,53,56,53,50,98,86,61,30.21,30.12,2,1,12,0.01
2013-5-19,64,58,54,64,58,53,100,99,98,30.21,30.10,2,0,9,0.03
2013-5-20,76,67,61,70,65,61,100,93,78,30.13,29.98,2,0,9,0.00
2013-5-21,82,71,63,74,68,62,100,90,72,29.98,29.85,1,0,7,0.00
2013-5-22,85,71,62,74,67,61,99,88,60,29.92,29.80,6,0,17,0.31
2013-5-23,73,64,61,69,63,60,99,96,82,29.87,29.72,2,0,6,0.19
2013-5-24,61,45,42,60,32,-100,99,79,73,30.15,29.73,7,-92,28,0.00
2013-5-25,59,35,40,43,-8,-100,85,40,50,30.18,30.10,7,-335,24,0.00
2013-5-26,65,53,42,46,39,35,78,61,45,30.25,30.15,5,1,18,0.00
2013-5-27,62,56,49,49,44,35,82,63,52,30.29,30.18,1,0,7,0.00
2013-5-28,72,62,53,65,56,46,94,83,69,30.21,30.08,3,0,9,0.01
2013-5-29,83,72,62,71,65,61,97,81,56,30.12,30.06,4,1,14,0.00
2013-5-30,86,76,66,73,67,62,90,76,58,30.17,30.08,1,0,8,0.00
2013-5-31,84,75,66,71,66,62,90,74,54,30.12,30.00,2,0,8,0.00